createdAt,value
2018-03-20T00:01:52.978Z,13.35
2018-03-20T00:04:20.369Z,12.95
2018-03-20T00:06:47.762Z,14.13
2018-03-20T00:09:15.534Z,13.93
2018-03-20T00:11:42.931Z,13.25
2018-03-20T00:14:10.330Z,13.35
2018-03-20T00:16:37.729Z,13.15
2018-03-20T00:19:05.127Z,11.73
2018-03-20T00:21:32.538Z,11.90
2018-03-20T00:23:59.939Z,13.57
2018-03-20T00:26:27.347Z,12.60
2018-03-20T00:28:54.742Z,12.52
2018-03-20T00:31:22.139Z,13.15
2018-03-20T00:33:49.543Z,11.82
2018-03-20T00:36:16.940Z,12.77
2018-03-20T00:38:44.335Z,11.90
2018-03-20T00:41:11.746Z,12.15
2018-03-20T00:43:39.146Z,13.52
2018-03-20T00:46:06.562Z,13.20
2018-03-20T00:48:33.954Z,12.15
2018-03-20T00:51:01.353Z,12.48
2018-03-20T00:53:28.750Z,12.80
2018-03-20T00:55:56.146Z,12.77
2018-03-20T00:58:23.553Z,12.25
2018-03-20T01:00:50.955Z,11.50
2018-03-20T01:03:18.342Z,12.57
2018-03-20T01:05:45.743Z,12.93
2018-03-20T01:08:13.141Z,11.68
2018-03-20T01:10:40.547Z,11.85
2018-03-20T01:13:07.945Z,13.25
2018-03-20T01:15:35.337Z,12.00
2018-03-20T01:18:02.733Z,11.88
2018-03-20T01:20:30.134Z,14.00
2018-03-20T01:22:57.546Z,12.57
2018-03-20T01:25:24.937Z,13.02
2018-03-20T01:27:52.337Z,14.23
2018-03-20T01:44:47.854Z,12.95
2018-03-20T01:47:15.262Z,12.75
2018-03-20T01:49:42.658Z,13.52
2018-03-20T01:52:10.622Z,14.30
2018-03-20T01:54:38.017Z,14.50
2018-03-20T01:57:05.421Z,12.52
2018-03-20T01:59:32.835Z,12.88
2018-03-20T02:02:00.243Z,13.45
2018-03-20T02:04:27.630Z,13.77
2018-03-20T02:06:55.029Z,13.00
2018-03-20T02:09:22.451Z,13.05
2018-03-20T02:11:49.855Z,12.98
2018-03-20T02:14:17.302Z,13.73
2018-03-20T02:16:44.670Z,13.05
2018-03-20T02:19:12.078Z,12.88
2018-03-20T02:21:39.477Z,13.82
2018-03-20T02:24:06.889Z,14.35
2018-03-20T02:26:34.273Z,13.13
2018-03-20T02:29:01.677Z,13.05
2018-03-20T02:31:29.074Z,13.93
2018-03-20T02:33:56.481Z,13.20
2018-03-20T02:36:23.869Z,14.13
2018-03-20T02:38:51.274Z,14.52
2018-03-20T02:41:18.671Z,13.50
2018-03-20T02:43:46.070Z,13.75
2018-03-20T02:46:14.050Z,14.40
2018-03-20T02:48:41.455Z,12.90
2018-03-20T02:51:08.874Z,14.07
2018-03-20T02:53:36.277Z,13.85
2018-03-20T02:56:03.662Z,14.80
2018-03-20T02:58:31.118Z,14.18
2018-03-20T03:00:58.549Z,13.77
2018-03-20T03:03:25.939Z,13.25
2018-03-20T03:05:53.422Z,14.20
2018-03-20T03:08:20.824Z,13.95
2018-03-20T03:10:48.213Z,12.80
2018-03-20T03:13:15.613Z,13.23
2018-03-20T03:15:43.020Z,13.88
2018-03-20T03:18:10.411Z,13.60
2018-03-20T03:20:37.808Z,12.73
2018-03-20T03:23:05.204Z,14.93
2018-03-20T03:25:32.601Z,14.43
2018-03-20T03:28:00.181Z,14.90
2018-03-20T03:30:27.599Z,15.40
2018-03-20T03:32:54.988Z,14.07
2018-03-20T03:35:22.389Z,14.50
2018-03-20T03:37:49.785Z,14.63
2018-03-20T03:40:17.181Z,15.32
2018-03-20T03:42:44.583Z,14.60
2018-03-20T03:45:11.979Z,14.50
2018-03-20T03:47:39.374Z,13.50
2018-03-20T03:50:06.766Z,14.52
2018-03-20T03:52:34.165Z,14.73
2018-03-20T03:55:01.579Z,14.68
2018-03-20T03:57:28.978Z,14.60
2018-03-20T03:59:56.379Z,14.77
2018-03-20T04:02:23.782Z,17.15
2018-03-20T04:04:51.185Z,15.55
2018-03-20T04:07:18.587Z,14.90
2018-03-20T04:09:45.982Z,14.98
2018-03-20T04:12:13.386Z,14.98
2018-03-20T04:14:40.780Z,13.65
2018-03-20T04:17:08.186Z,13.90
2018-03-20T04:19:35.586Z,14.40
2018-03-20T04:22:02.979Z,13.35
2018-03-20T04:24:30.390Z,14.95
2018-03-20T04:26:57.781Z,14.43
2018-03-20T04:29:25.181Z,14.90
2018-03-20T04:31:52.594Z,14.50
2018-03-20T04:34:20.001Z,15.85
2018-03-20T04:36:47.394Z,14.52
2018-03-20T04:39:14.798Z,13.35
2018-03-20T04:41:42.194Z,13.85
2018-03-20T04:44:09.607Z,13.88
2018-03-20T04:46:36.998Z,13.25
2018-03-20T04:49:04.393Z,14.02
2018-03-20T04:51:31.801Z,13.85
2018-03-20T04:53:59.201Z,13.65
2018-03-20T04:56:26.594Z,15.00
2018-03-20T04:58:54.034Z,14.18
2018-03-20T05:01:21.441Z,14.95
2018-03-20T05:03:48.818Z,14.80
2018-03-20T05:06:16.222Z,16.17
2018-03-20T05:08:43.613Z,14.50
2018-03-20T05:11:11.009Z,15.52
2018-03-20T05:13:38.407Z,14.93
2018-03-20T05:16:05.831Z,14.87
2018-03-20T05:18:33.208Z,14.10
2018-03-20T05:21:06.217Z,14.87
2018-03-20T05:23:39.295Z,15.23
2018-03-20T05:26:06.704Z,15.38
2018-03-20T05:28:34.099Z,16.12
2018-03-20T05:31:01.517Z,15.35
2018-03-20T05:33:28.906Z,17.17
2018-03-20T05:35:56.299Z,16.25
2018-03-20T05:38:23.741Z,16.08
2018-03-20T05:40:51.104Z,16.70
2018-03-20T05:43:18.505Z,17.33
2018-03-20T05:45:45.897Z,17.70
2018-03-20T05:51:38.863Z,17.85
2018-03-20T05:54:06.284Z,18.02
2018-03-20T05:56:33.682Z,16.75
2018-03-20T05:59:01.081Z,16.92
2018-03-20T06:01:28.522Z,18.02
2018-03-20T06:03:55.913Z,17.95
2018-03-20T06:06:23.313Z,16.90
2018-03-20T06:08:50.713Z,17.12
2018-03-20T06:11:18.109Z,17.48
2018-03-20T06:13:45.518Z,18.00
2018-03-20T06:16:12.914Z,19.15
2018-03-20T06:18:40.367Z,18.17
2018-03-20T06:21:07.752Z,19.48
2018-03-20T06:23:35.149Z,18.52
2018-03-20T06:26:02.559Z,18.33
2018-03-20T06:28:29.961Z,18.75
2018-03-20T06:30:57.358Z,18.33
2018-03-20T06:33:24.749Z,18.65
2018-03-20T06:35:52.171Z,19.25
2018-03-20T06:38:19.565Z,19.65
2018-03-20T06:40:46.970Z,19.67
2018-03-20T06:43:15.092Z,19.95
2018-03-20T06:45:42.486Z,18.95
2018-03-20T06:48:09.875Z,20.73
2018-03-20T06:50:37.269Z,21.67
2018-03-20T06:53:04.969Z,20.40
2018-03-20T06:55:32.717Z,20.60
2018-03-20T06:58:00.114Z,19.95
2018-03-20T07:00:27.509Z,19.42
2018-03-20T07:02:54.906Z,18.87
2018-03-20T07:05:22.308Z,19.52
2018-03-20T07:07:49.694Z,18.80
2018-03-20T07:10:17.094Z,20.00
2018-03-20T07:12:44.486Z,19.45
2018-03-20T07:15:11.869Z,20.05
2018-03-20T07:17:39.270Z,20.75
2018-03-20T07:20:06.655Z,20.37
2018-03-20T07:22:34.059Z,19.70
2018-03-20T07:25:01.468Z,20.58
2018-03-20T07:27:28.846Z,21.65
2018-03-20T07:29:56.242Z,23.67
2018-03-20T07:32:23.646Z,24.90
2018-03-20T07:34:51.186Z,23.02
2018-03-20T07:37:18.575Z,22.48
2018-03-20T07:39:45.978Z,23.50
2018-03-20T07:42:13.366Z,22.70
2018-03-20T07:44:40.790Z,24.75
2018-03-20T07:47:08.186Z,23.65
2018-03-20T07:49:35.579Z,23.38
2018-03-20T07:52:02.982Z,22.90
2018-03-20T07:54:30.378Z,22.20
2018-03-20T07:56:57.786Z,22.30
2018-03-20T07:59:25.183Z,22.50
2018-03-20T08:01:52.588Z,23.45
2018-03-20T08:04:19.977Z,23.25
2018-03-20T08:06:47.378Z,25.88
2018-03-20T08:09:14.769Z,25.83
2018-03-20T08:11:42.161Z,29.20
2018-03-20T08:14:09.562Z,25.98
2018-03-20T08:16:36.950Z,27.58
2018-03-20T08:19:04.374Z,26.17
2018-03-20T08:21:31.756Z,24.98
2018-03-20T08:23:59.146Z,25.02
2018-03-20T08:26:26.553Z,26.50
2018-03-20T08:28:54.362Z,28.55
2018-03-20T08:31:21.754Z,27.60
2018-03-20T08:33:49.149Z,27.00
2018-03-20T08:36:16.550Z,26.33
2018-03-20T08:38:43.945Z,28.75
2018-03-20T08:41:11.346Z,29.70
2018-03-20T08:43:38.747Z,28.45
2018-03-20T08:46:06.146Z,29.83
2018-03-20T08:48:33.541Z,30.37
2018-03-20T08:51:00.945Z,30.67
2018-03-20T08:53:28.335Z,31.23
2018-03-20T08:55:55.730Z,29.12
2018-03-20T08:58:23.123Z,30.10
2018-03-20T09:00:50.522Z,32.55
2018-03-20T09:03:17.934Z,29.75
2018-03-20T09:05:45.348Z,33.85
2018-03-20T09:08:12.734Z,31.35
2018-03-20T09:10:40.133Z,31.92
2018-03-20T09:13:07.530Z,31.17
2018-03-20T09:15:34.936Z,30.77
2018-03-20T09:18:02.334Z,31.52
2018-03-20T09:20:29.734Z,29.60
2018-03-20T09:22:57.139Z,29.52
2018-03-20T09:25:24.554Z,30.37
2018-03-20T09:27:51.958Z,29.12
2018-03-20T09:30:19.353Z,30.70
2018-03-20T09:32:46.766Z,30.42
2018-03-20T09:35:14.166Z,33.53
2018-03-20T09:37:41.569Z,33.58
2018-03-20T09:40:08.970Z,31.17
2018-03-20T09:42:36.431Z,29.90
2018-03-20T09:45:03.778Z,29.58
2018-03-20T09:47:31.602Z,29.33
2018-03-20T09:49:58.995Z,27.50
2018-03-20T09:52:26.393Z,27.40
2018-03-20T09:54:53.789Z,28.00
2018-03-20T09:57:21.173Z,24.47
2018-03-20T09:59:48.570Z,25.10
2018-03-20T10:02:15.967Z,27.77
2018-03-20T10:04:43.358Z,26.07
2018-03-20T10:07:10.755Z,25.90
2018-03-20T10:09:38.162Z,27.43
2018-03-20T10:12:05.546Z,24.40
2018-03-20T10:14:32.938Z,23.40
2018-03-20T10:17:00.337Z,26.20
2018-03-20T10:19:27.733Z,23.73
2018-03-20T10:21:55.117Z,22.30
2018-03-20T10:24:22.791Z,21.67
2018-03-20T10:26:50.174Z,20.33
2018-03-20T10:29:17.561Z,19.10
2018-03-20T10:31:44.953Z,16.70
2018-03-20T10:34:12.349Z,18.23
2018-03-20T10:36:39.758Z,16.60
2018-03-20T10:39:07.147Z,14.27
2018-03-20T10:41:34.565Z,14.37
2018-03-20T10:44:01.970Z,13.73
2018-03-20T10:46:29.361Z,11.60
2018-03-20T10:48:56.751Z,12.40
2018-03-20T10:51:24.146Z,11.20
2018-03-20T10:53:51.534Z,10.87
2018-03-20T10:56:18.929Z,10.53
2018-03-20T10:58:46.313Z,9.70
2018-03-20T11:01:19.402Z,10.60
2018-03-20T11:03:46.798Z,10.37
2018-03-20T11:06:14.190Z,10.20
2018-03-20T11:08:41.608Z,10.27
2018-03-20T11:11:08.991Z,9.70
2018-03-20T11:13:36.389Z,9.90
2018-03-20T11:16:03.770Z,8.60
2018-03-20T11:18:31.157Z,8.93
2018-03-20T11:20:58.542Z,9.13
2018-03-20T11:23:25.937Z,9.20
2018-03-20T11:25:53.320Z,8.20
2018-03-20T11:28:20.703Z,8.40
2018-03-20T11:30:48.099Z,8.77
2018-03-20T11:33:15.474Z,8.77
2018-03-20T11:35:42.861Z,8.10
2018-03-20T11:38:10.250Z,8.20
2018-03-20T11:40:37.640Z,8.47
2018-03-20T11:43:05.019Z,8.03
2018-03-20T11:45:32.405Z,7.90
2018-03-20T11:47:59.786Z,7.10
2018-03-20T11:50:27.176Z,7.83
2018-03-20T11:52:54.558Z,8.23
2018-03-20T11:55:21.942Z,7.63
2018-03-20T11:57:49.334Z,7.20
2018-03-20T12:00:16.717Z,7.17
2018-03-20T12:02:44.102Z,7.03
2018-03-20T12:05:11.486Z,7.93
2018-03-20T12:07:50.774Z,6.47
2018-03-20T12:10:18.154Z,6.70
2018-03-20T12:12:45.545Z,6.67
2018-03-20T12:15:12.929Z,6.37
2018-03-20T12:17:40.368Z,6.50
2018-03-20T12:20:07.755Z,6.60
2018-03-20T12:22:35.137Z,6.53
2018-03-20T12:25:02.530Z,6.50
2018-03-20T12:27:29.942Z,6.47
2018-03-20T12:29:57.339Z,6.40
2018-03-20T12:32:24.714Z,5.73
2018-03-20T12:34:52.111Z,5.60
2018-03-20T12:37:19.490Z,5.30
2018-03-20T12:39:46.877Z,5.73
2018-03-20T12:42:14.271Z,5.60
2018-03-20T12:44:41.654Z,5.20
2018-03-20T12:47:09.046Z,6.60
2018-03-20T12:49:36.426Z,6.40
2018-03-20T12:52:03.807Z,6.90
2018-03-20T12:54:31.251Z,7.00
2018-03-20T12:56:58.605Z,6.67
2018-03-20T12:59:25.978Z,6.57
2018-03-20T13:01:53.366Z,6.70
2018-03-20T13:04:20.760Z,6.73
2018-03-20T13:06:48.138Z,6.97
2018-03-20T13:09:15.526Z,7.30
2018-03-20T13:11:42.910Z,6.90
2018-03-20T13:14:11.049Z,7.10
2018-03-20T13:16:38.433Z,6.30
2018-03-20T13:19:05.818Z,6.40
2018-03-20T13:21:33.190Z,6.40
2018-03-20T13:24:00.590Z,6.80
2018-03-20T13:26:27.966Z,6.70
2018-03-20T13:28:55.346Z,6.20
2018-03-20T13:31:22.762Z,5.83
2018-03-20T13:33:50.150Z,6.93
2018-03-20T13:36:17.534Z,6.83
2018-03-20T13:38:44.918Z,7.07
2018-03-20T13:41:12.315Z,7.20
2018-03-20T13:43:39.693Z,6.93
2018-03-20T13:46:07.081Z,6.40
2018-03-20T13:48:34.479Z,6.67
2018-03-20T13:51:01.866Z,6.97
2018-03-20T13:53:29.245Z,8.00
2018-03-20T13:55:56.625Z,7.30
2018-03-20T13:58:24.009Z,6.70
2018-03-20T14:00:51.389Z,7.00
2018-03-20T14:03:18.783Z,7.20
2018-03-20T14:05:46.153Z,6.47
2018-03-20T14:08:13.547Z,7.30
2018-03-20T14:10:40.928Z,8.37
2018-03-20T14:13:08.322Z,7.53
2018-03-20T14:15:35.697Z,7.63
2018-03-20T14:18:03.086Z,7.30
2018-03-20T14:20:30.531Z,7.53
2018-03-20T14:22:57.919Z,7.50
2018-03-20T14:25:25.333Z,7.10
2018-03-20T14:27:52.710Z,7.10
2018-03-20T14:30:20.137Z,6.70
2018-03-20T14:32:47.538Z,7.60
2018-03-20T14:35:14.942Z,7.00
2018-03-20T14:37:42.330Z,8.30
2018-03-20T14:40:09.718Z,7.20
2018-03-20T14:42:37.103Z,7.67
2018-03-20T14:45:04.488Z,7.13
2018-03-20T14:47:31.870Z,6.50
2018-03-20T14:49:59.250Z,6.63
2018-03-20T14:52:26.645Z,6.60
2018-03-20T14:54:54.032Z,6.40
2018-03-20T14:57:21.426Z,6.00
2018-03-20T14:59:48.837Z,6.80
2018-03-20T15:02:16.226Z,7.17
2018-03-20T15:04:43.605Z,7.30
2018-03-20T15:07:10.990Z,7.07
2018-03-20T15:09:38.379Z,7.40
2018-03-20T15:12:05.767Z,6.80
2018-03-20T15:14:33.203Z,6.90
2018-03-20T15:17:00.582Z,7.00
2018-03-20T15:19:27.970Z,7.10
2018-03-20T15:21:55.350Z,7.50
2018-03-20T15:24:22.740Z,6.80
2018-03-20T15:26:50.158Z,7.00
2018-03-20T15:29:17.573Z,6.60
2018-03-20T15:31:44.937Z,7.03
2018-03-20T15:34:12.325Z,6.93
2018-03-20T15:36:39.742Z,6.03
2018-03-20T15:39:07.140Z,5.90
2018-03-20T15:41:34.522Z,6.37
2018-03-20T15:44:01.906Z,7.50
2018-03-20T15:46:29.311Z,6.93
2018-03-20T15:48:56.732Z,6.60
2018-03-20T15:51:24.157Z,6.70
2018-03-20T15:53:51.578Z,6.60
2018-03-20T15:56:18.981Z,6.90
2018-03-20T15:58:46.358Z,7.10
2018-03-20T16:01:13.795Z,6.63
2018-03-20T16:03:41.222Z,6.70
2018-03-20T16:06:08.689Z,6.60
2018-03-20T16:08:36.078Z,6.30
2018-03-20T16:11:03.470Z,6.53
2018-03-20T16:13:30.848Z,7.20
2018-03-20T16:15:58.301Z,7.00
2018-03-20T16:18:25.713Z,6.77
2018-03-20T16:20:53.146Z,6.67
2018-03-20T16:23:20.583Z,6.60
2018-03-20T16:25:48.020Z,7.57
2018-03-20T16:28:15.390Z,7.03
2018-03-20T16:30:42.799Z,7.50
2018-03-20T16:33:10.209Z,7.53
2018-03-20T16:35:37.611Z,6.30
2018-03-20T16:38:05.038Z,6.50
2018-03-20T16:40:32.477Z,7.00
2018-03-20T16:42:59.861Z,7.50
2018-03-20T16:45:27.277Z,7.20
2018-03-20T16:47:54.726Z,7.10
2018-03-20T16:50:22.133Z,6.80
2018-03-20T16:52:49.517Z,7.10
2018-03-20T16:55:16.905Z,7.10
2018-03-20T16:57:44.300Z,7.20
2018-03-20T17:00:11.686Z,7.10
2018-03-20T17:02:39.471Z,8.17
2018-03-20T17:05:06.856Z,7.20
2018-03-20T17:07:34.229Z,7.80
2018-03-20T17:10:01.617Z,7.37
2018-03-20T17:12:28.994Z,7.20
2018-03-20T17:14:56.406Z,7.40
2018-03-20T17:17:23.791Z,9.70
2018-03-20T17:19:51.177Z,7.83
2018-03-20T17:22:18.589Z,8.57
2018-03-20T17:24:45.978Z,8.00
2018-03-20T17:27:13.362Z,7.27
2018-03-20T17:29:40.752Z,7.80
2018-03-20T17:32:08.140Z,7.87
2018-03-20T17:34:35.545Z,7.77
2018-03-20T17:37:02.926Z,8.00
2018-03-20T17:39:30.319Z,7.33
2018-03-20T17:41:57.706Z,7.20
2018-03-20T17:44:25.106Z,7.20
2018-03-20T17:46:52.495Z,6.90
2018-03-20T17:49:19.879Z,7.10
2018-03-20T17:51:47.274Z,7.20
2018-03-20T17:54:14.654Z,7.43
2018-03-20T17:56:42.057Z,7.60
2018-03-20T17:59:09.438Z,6.93
2018-03-20T18:01:36.814Z,8.10
2018-03-20T18:04:04.209Z,7.87
2018-03-20T18:06:31.608Z,7.80
2018-03-20T18:08:59.304Z,8.00
2018-03-20T18:11:26.672Z,8.10
2018-03-20T18:13:54.098Z,8.20
2018-03-20T18:16:21.484Z,8.17
2018-03-20T18:18:48.880Z,8.30
2018-03-20T18:21:16.278Z,8.70
2018-03-20T18:23:43.664Z,8.43
2018-03-20T18:26:11.069Z,8.37
2018-03-20T18:28:38.453Z,8.97
2018-03-20T18:31:05.835Z,8.20
2018-03-20T18:33:33.243Z,7.90
2018-03-20T18:36:00.634Z,8.20
2018-03-20T18:38:28.021Z,7.90
2018-03-20T18:40:55.390Z,8.40
2018-03-20T18:43:22.782Z,8.20
2018-03-20T18:45:50.171Z,7.90
2018-03-20T18:48:17.553Z,8.50
2018-03-20T18:50:44.939Z,8.60
2018-03-20T18:53:12.347Z,8.33
2018-03-20T18:55:39.721Z,8.70
2018-03-20T18:58:07.129Z,8.20
2018-03-20T19:00:34.521Z,8.60
2018-03-20T19:03:01.908Z,8.07
2018-03-20T19:05:29.286Z,8.00
2018-03-20T19:07:56.675Z,8.80
2018-03-20T19:10:24.077Z,8.67
2018-03-20T19:12:51.461Z,7.90
2018-03-20T19:15:18.846Z,8.30
2018-03-20T19:17:46.264Z,8.17
2018-03-20T19:20:13.714Z,8.23
2018-03-20T19:22:41.057Z,9.00
2018-03-20T19:25:08.441Z,9.03
2018-03-20T19:27:35.825Z,8.87
2018-03-20T19:30:03.219Z,8.80
2018-03-20T19:32:30.606Z,8.67
2018-03-20T19:34:58.021Z,10.63
2018-03-20T19:37:25.397Z,9.17
2018-03-20T19:39:52.785Z,9.50
2018-03-20T19:42:20.177Z,9.50
2018-03-20T19:44:47.567Z,9.40
2018-03-20T19:47:14.980Z,9.50
2018-03-20T19:49:42.380Z,9.67
2018-03-20T19:52:09.780Z,9.33
2018-03-20T19:54:37.170Z,9.10
2018-03-20T19:57:04.570Z,9.70
2018-03-20T19:59:31.986Z,9.00
2018-03-20T20:01:59.382Z,8.35
2018-03-20T20:04:26.781Z,8.40
2018-03-20T20:06:54.174Z,9.60
2018-03-20T20:09:21.578Z,8.93
2018-03-20T20:11:48.990Z,9.20
2018-03-20T20:14:16.397Z,8.73
2018-03-20T20:16:43.800Z,8.53
2018-03-20T20:19:11.211Z,9.30
2018-03-20T20:21:38.632Z,9.77
2018-03-20T20:24:06.036Z,10.60
2018-03-20T20:26:33.438Z,10.57
2018-03-20T20:29:00.827Z,9.60
2018-03-20T20:31:28.218Z,9.60
2018-03-20T20:33:55.614Z,9.10
2018-03-20T20:36:23.051Z,8.50
2018-03-20T20:38:50.449Z,9.00
2018-03-20T20:41:17.873Z,9.43
2018-03-20T20:43:45.294Z,9.80
2018-03-20T20:46:12.693Z,10.10
2018-03-20T20:48:40.096Z,9.38
2018-03-20T20:51:07.499Z,9.45
2018-03-20T20:53:34.896Z,9.88
2018-03-20T20:56:02.314Z,10.07
2018-03-20T20:58:29.707Z,9.35
2018-03-20T21:00:57.137Z,10.15
2018-03-20T21:03:24.538Z,9.63
2018-03-20T21:05:51.929Z,9.55
2018-03-20T21:08:19.343Z,10.00
2018-03-20T21:10:46.753Z,10.10
2018-03-20T21:13:14.150Z,10.20
2018-03-20T21:15:41.553Z,10.40
2018-03-20T21:18:08.954Z,10.40
2018-03-20T21:20:36.352Z,9.70
2018-03-20T21:23:03.762Z,10.02
2018-03-20T21:25:31.153Z,9.35
2018-03-20T21:27:58.610Z,10.27
2018-03-20T21:30:25.966Z,10.50
2018-03-20T21:32:53.358Z,9.35
2018-03-20T21:35:20.766Z,10.15
2018-03-20T21:37:48.222Z,10.02
2018-03-20T21:40:15.629Z,10.07
2018-03-20T21:42:43.059Z,9.45
2018-03-20T21:45:10.433Z,9.85
2018-03-20T21:47:37.832Z,9.20
2018-03-20T21:50:05.226Z,9.25
2018-03-20T21:52:32.626Z,9.25
2018-03-20T21:55:00.016Z,9.40
2018-03-20T21:57:27.437Z,8.95
2018-03-20T21:59:54.818Z,9.10
2018-03-20T22:02:22.230Z,9.57
2018-03-20T22:04:49.628Z,9.40
2018-03-20T22:07:17.026Z,9.82
2018-03-20T22:09:44.445Z,9.93
2018-03-20T22:12:11.839Z,9.70
2018-03-20T22:14:39.244Z,10.13
2018-03-20T22:17:06.636Z,10.15
2018-03-20T22:19:34.030Z,10.60
2018-03-20T22:22:01.438Z,10.55
2018-03-20T22:24:28.825Z,9.60
2018-03-20T22:26:56.223Z,10.52
2018-03-20T22:29:23.626Z,10.25
2018-03-20T22:31:51.022Z,9.30
2018-03-20T22:34:18.446Z,10.50
2018-03-20T22:36:45.893Z,9.50
2018-03-20T22:39:13.241Z,10.18
2018-03-20T22:41:40.682Z,10.50
2018-03-20T22:44:08.045Z,11.25
2018-03-20T22:46:35.469Z,12.30
2018-03-20T22:49:02.851Z,11.45
2018-03-20T22:51:30.246Z,11.10
2018-03-20T22:53:57.661Z,11.90
2018-03-20T22:56:25.066Z,11.18
2018-03-20T22:58:52.470Z,10.70
2018-03-20T23:01:19.862Z,10.52
2018-03-20T23:03:47.274Z,11.50
2018-03-20T23:06:14.669Z,11.10
2018-03-20T23:08:42.068Z,10.57
2018-03-20T23:11:09.474Z,11.00
2018-03-20T23:13:36.869Z,10.65
2018-03-20T23:16:04.275Z,11.00
2018-03-20T23:18:31.673Z,11.07
2018-03-20T23:20:59.085Z,12.13
2018-03-20T23:23:26.479Z,10.93
2018-03-20T23:25:53.881Z,11.23
2018-03-20T23:28:21.279Z,11.32
2018-03-20T23:30:48.678Z,11.20
2018-03-20T23:33:16.078Z,11.05
2018-03-20T23:35:43.473Z,9.95
2018-03-20T23:38:10.878Z,11.20
2018-03-20T23:40:38.281Z,11.48
2018-03-20T23:43:05.677Z,10.52
2018-03-20T23:45:33.078Z,10.00
2018-03-20T23:48:00.471Z,10.55
2018-03-20T23:50:27.892Z,10.77
2018-03-20T23:52:55.282Z,10.27
2018-03-20T23:55:22.707Z,10.77
2018-03-20T23:57:50.102Z,11.07
